createdAt,value
2022-09-12T00:00:49.965Z,37.08
2022-09-12T00:03:40.621Z,32.35
2022-09-12T00:06:30.768Z,35.20
2022-09-12T00:09:18.774Z,30.00
2022-09-12T00:12:07.860Z,33.85
2022-09-12T00:14:56.292Z,31.83
2022-09-12T00:17:46.849Z,28.15
2022-09-12T00:20:44.188Z,33.83
2022-09-12T00:23:36.048Z,37.75
2022-09-12T00:26:27.617Z,32.13
2022-09-12T00:29:20.530Z,30.27
2022-09-12T00:32:11.614Z,29.13
2022-09-12T00:35:03.851Z,33.15
2022-09-12T00:37:56.395Z,30.73
2022-09-12T00:40:48.005Z,28.13
2022-09-12T00:43:42.434Z,33.35
2022-09-12T00:49:30.595Z,29.50
2022-09-12T00:52:25.622Z,34.05
2022-09-12T00:55:21.488Z,26.00
2022-09-12T00:58:16.381Z,29.52
2022-09-12T01:01:07.301Z,38.05
2022-09-12T01:03:58.403Z,33.53
2022-09-12T01:06:49.665Z,32.45
2022-09-12T01:09:39.710Z,29.60
2022-09-12T01:12:28.483Z,35.08
2022-09-12T01:15:15.830Z,29.65
2022-09-12T01:18:15.164Z,31.90
2022-09-12T01:21:16.241Z,31.55
2022-09-12T01:24:14.087Z,29.60
2022-09-12T01:27:18.324Z,31.20
2022-09-12T01:30:46.508Z,33.97
2022-09-12T01:33:46.995Z,33.38
2022-09-12T01:36:41.091Z,33.47
2022-09-12T01:39:36.319Z,29.83
2022-09-12T01:42:34.839Z,28.23
2022-09-12T01:45:31.160Z,30.92
2022-09-12T01:48:23.489Z,29.92
2022-09-12T01:51:18.781Z,26.33
2022-09-12T01:54:12.547Z,28.95
2022-09-12T01:57:15.668Z,31.73
2022-09-12T02:00:09.014Z,26.92
2022-09-12T02:03:03.473Z,28.27
2022-09-12T02:05:55.537Z,24.00
2022-09-12T02:08:48.250Z,28.58
2022-09-12T02:11:37.143Z,26.70
2022-09-12T02:14:26.314Z,28.70
2022-09-12T02:17:15.995Z,27.60
2022-09-12T02:20:08.036Z,25.98
2022-09-12T02:22:56.920Z,27.08
2022-09-12T02:25:46.409Z,25.60
2022-09-12T02:28:35.767Z,25.88
2022-09-12T02:31:24.639Z,27.13
2022-09-12T02:34:16.270Z,25.92
2022-09-12T02:37:08.616Z,23.90
2022-09-12T02:39:57.056Z,29.75
2022-09-12T02:42:44.525Z,28.42
2022-09-12T02:45:34.777Z,25.42
2022-09-12T02:48:24.853Z,27.02
2022-09-12T02:51:12.822Z,30.83
2022-09-12T02:54:02.317Z,25.15
2022-09-12T02:56:49.410Z,27.83
2022-09-12T02:59:36.573Z,27.15
2022-09-12T03:02:28.272Z,31.85
2022-09-12T03:05:22.680Z,26.80
2022-09-12T03:08:16.078Z,27.52
2022-09-12T03:11:11.434Z,26.80
2022-09-12T03:14:05.174Z,24.52
2022-09-12T03:16:58.737Z,21.42
2022-09-12T03:19:52.887Z,27.38
2022-09-12T03:22:48.152Z,26.33
2022-09-12T03:25:42.460Z,21.33
2022-09-12T03:28:33.402Z,24.00
2022-09-12T03:31:21.774Z,26.30
2022-09-12T03:34:13.375Z,26.00
2022-09-12T03:37:00.726Z,24.83
2022-09-12T03:39:48.093Z,19.80
2022-09-12T03:42:36.227Z,21.55
2022-09-12T03:45:25.357Z,30.33
2022-09-12T03:48:13.378Z,28.98
2022-09-12T03:51:04.615Z,23.15
2022-09-12T03:53:52.271Z,26.02
2022-09-12T03:56:39.251Z,24.17
2022-09-12T03:59:27.219Z,23.20
2022-09-12T04:02:15.974Z,22.80
2022-09-12T04:05:03.114Z,24.65
2022-09-12T04:07:50.120Z,25.02
2022-09-12T04:10:37.555Z,23.17
2022-09-12T04:13:25.366Z,23.15
2022-09-12T04:16:14.310Z,23.83
2022-09-12T04:19:03.054Z,20.55
2022-09-12T04:21:50.717Z,21.75
2022-09-12T04:24:38.696Z,22.88
2022-09-12T04:27:26.850Z,21.58
2022-09-12T04:30:14.127Z,23.38
2022-09-12T04:33:03.911Z,23.10
2022-09-12T04:35:56.583Z,22.52
2022-09-12T04:38:44.512Z,21.70
2022-09-12T04:41:33.179Z,24.50
2022-09-12T04:44:20.403Z,20.77
2022-09-12T04:47:08.107Z,21.83
2022-09-12T04:49:55.546Z,21.70
2022-09-12T04:52:45.212Z,21.10
2022-09-12T04:55:33.055Z,19.90
2022-09-12T04:58:20.119Z,21.75
2022-09-12T05:01:07.628Z,19.70
2022-09-12T05:03:55.967Z,19.45
2022-09-12T05:06:43.408Z,19.80
2022-09-12T05:09:32.032Z,22.33
2022-09-12T05:12:18.987Z,19.63
2022-09-12T05:15:06.443Z,19.38
2022-09-12T05:17:53.574Z,20.70
2022-09-12T05:20:41.248Z,21.55
2022-09-12T05:23:29.575Z,19.83
2022-09-12T05:26:19.495Z,18.05
2022-09-12T05:29:07.293Z,22.73
2022-09-12T05:31:55.233Z,20.83
2022-09-12T05:34:46.625Z,22.48
2022-09-12T05:37:38.291Z,21.45
2022-09-12T05:40:28.018Z,21.27
2022-09-12T05:43:16.711Z,23.02
2022-09-12T05:46:16.810Z,20.00
2022-09-12T05:49:21.486Z,23.13
2022-09-12T05:52:22.953Z,21.15
2022-09-12T05:55:15.479Z,20.60
2022-09-12T05:58:03.145Z,19.25
2022-09-12T06:01:00.545Z,22.42
2022-09-12T06:03:58.850Z,21.20
2022-09-12T06:06:49.459Z,23.27
2022-09-12T06:09:36.964Z,19.17
2022-09-12T06:12:24.279Z,21.83
2022-09-12T06:15:13.633Z,18.13
2022-09-12T06:18:05.344Z,25.45
2022-09-12T06:21:15.999Z,26.58
2022-09-12T06:24:13.737Z,25.42
2022-09-12T06:27:09.744Z,21.52
2022-09-12T06:29:59.675Z,22.80
2022-09-12T06:32:51.008Z,22.52
2022-09-12T06:35:40.745Z,21.40
2022-09-12T06:41:55.030Z,21.30
2022-09-12T06:44:42.482Z,28.90
2022-09-12T06:47:34.447Z,25.80
2022-09-12T06:50:26.000Z,24.92
2022-09-12T06:53:15.174Z,24.45
2022-09-12T06:56:03.883Z,27.38
2022-09-12T06:58:55.696Z,25.77
2022-09-12T07:01:46.038Z,25.48
2022-09-12T07:04:36.892Z,22.83
2022-09-12T07:07:27.073Z,33.55
2022-09-12T07:10:22.208Z,27.67
2022-09-12T07:13:11.990Z,28.33
2022-09-12T07:16:07.548Z,27.60
2022-09-12T07:18:55.519Z,30.48
2022-09-12T07:21:47.055Z,28.40
2022-09-12T07:24:35.429Z,29.92
2022-09-12T07:27:24.788Z,27.13
2022-09-12T07:30:12.250Z,30.38
2022-09-12T07:32:59.449Z,26.65
2022-09-12T07:35:46.718Z,27.08
2022-09-12T07:38:34.303Z,27.10
2022-09-12T07:41:23.316Z,27.27
2022-09-12T07:44:12.319Z,25.50
2022-09-12T07:46:59.886Z,26.45
2022-09-12T07:49:47.672Z,30.10
2022-09-12T07:52:34.844Z,27.25
2022-09-12T07:55:21.854Z,28.83
2022-09-12T07:58:09.198Z,28.85
2022-09-12T08:01:02.799Z,28.30
2022-09-12T08:03:52.247Z,24.92
2022-09-12T08:06:39.407Z,24.80
2022-09-12T08:09:26.907Z,24.38
2022-09-12T08:12:15.102Z,26.90
2022-09-12T08:15:02.303Z,23.05
2022-09-12T08:17:52.964Z,23.45
2022-09-12T08:20:40.085Z,28.23
2022-09-12T08:23:28.556Z,25.10
2022-09-12T08:26:16.469Z,23.42
2022-09-12T08:29:04.250Z,24.63
2022-09-12T08:31:55.228Z,19.50
2022-09-12T08:34:46.798Z,19.27
2022-09-12T08:37:34.242Z,20.48
2022-09-12T08:40:21.579Z,17.85
2022-09-12T08:43:18.443Z,16.20
2022-09-12T08:46:10.029Z,18.70
2022-09-12T08:48:59.308Z,16.60
2022-09-12T08:51:47.890Z,18.30
2022-09-12T08:54:35.077Z,15.63
2022-09-12T08:57:22.650Z,16.08
2022-09-12T09:00:14.507Z,15.07
2022-09-12T09:03:20.601Z,13.25
2022-09-12T09:06:13.476Z,11.95
2022-09-12T09:09:07.108Z,12.65
2022-09-12T09:11:59.770Z,12.18
2022-09-12T09:14:58.339Z,10.60
2022-09-12T09:17:46.927Z,11.00
2022-09-12T09:20:36.644Z,10.10
2022-09-12T09:23:27.083Z,9.60
2022-09-12T09:26:19.423Z,11.00
2022-09-12T09:29:09.914Z,10.32
2022-09-12T09:32:00.143Z,11.07
2022-09-12T09:34:48.620Z,9.07
2022-09-12T09:37:39.835Z,8.45
2022-09-12T09:40:29.740Z,6.50
2022-09-12T09:43:22.959Z,9.07
2022-09-12T09:46:12.000Z,8.25
2022-09-12T09:49:01.986Z,8.70
2022-09-12T09:51:49.378Z,10.10
2022-09-12T09:54:38.520Z,7.00
2022-09-12T09:57:43.279Z,9.18
2022-09-12T10:00:33.883Z,7.38
2022-09-12T10:03:28.431Z,7.53
2022-09-12T10:06:24.223Z,8.82
2022-09-12T10:09:22.473Z,7.95
2022-09-12T10:12:21.565Z,7.45
2022-09-12T10:15:18.630Z,6.90
2022-09-12T10:18:07.281Z,7.45
2022-09-12T10:20:54.338Z,9.35
2022-09-12T10:23:42.057Z,8.38
2022-09-12T10:26:33.261Z,8.02
2022-09-12T10:29:23.411Z,9.38
2022-09-12T10:32:12.708Z,8.77
2022-09-12T10:35:03.215Z,6.93
2022-09-12T10:37:55.287Z,9.35
2022-09-12T10:40:44.478Z,8.43
2022-09-12T10:43:36.196Z,6.68
2022-09-12T10:46:30.423Z,8.25
2022-09-12T10:52:19.951Z,6.75
2022-09-12T10:55:11.432Z,6.55
2022-09-12T10:58:05.325Z,6.15
2022-09-12T11:01:00.049Z,6.22
2022-09-12T11:03:54.788Z,6.55
2022-09-12T11:06:47.190Z,6.47
2022-09-12T11:09:38.693Z,7.20
2022-09-12T11:12:30.614Z,8.20
2022-09-12T11:15:29.431Z,6.57
2022-09-12T11:18:24.187Z,8.25
2022-09-12T11:21:17.437Z,6.75
2022-09-12T11:24:16.889Z,8.93
2022-09-12T11:27:13.382Z,8.60
2022-09-12T11:30:03.284Z,5.47
2022-09-12T11:33:00.189Z,5.57
2022-09-12T11:35:54.938Z,4.90
2022-09-12T11:38:48.468Z,6.32
2022-09-12T11:41:37.587Z,6.93
2022-09-12T11:44:29.738Z,4.82
2022-09-12T11:47:18.688Z,6.45
2022-09-12T11:50:08.115Z,5.97
2022-09-12T11:52:56.247Z,6.72
2022-09-12T11:55:48.861Z,7.97
2022-09-12T11:58:37.147Z,8.48
2022-09-12T12:01:27.431Z,5.63
2022-09-12T12:04:17.551Z,4.57
2022-09-12T12:07:06.634Z,5.22
2022-09-12T12:09:55.731Z,7.15
2022-09-12T12:12:43.228Z,5.60
2022-09-12T12:15:30.834Z,5.80
2022-09-12T12:18:20.550Z,7.80
2022-09-12T12:21:22.201Z,6.30
2022-09-12T12:24:14.730Z,8.05
2022-09-12T12:27:02.629Z,6.60
2022-09-12T12:29:49.495Z,7.15
2022-09-12T12:32:36.410Z,7.00
2022-09-12T12:35:41.373Z,7.05
2022-09-12T12:38:30.191Z,7.95
2022-09-12T12:41:35.914Z,7.47
2022-09-12T12:44:41.886Z,9.30
2022-09-12T12:47:33.188Z,6.90
2022-09-12T12:50:26.543Z,6.97
2022-09-12T12:53:21.358Z,5.78
2022-09-12T12:56:26.623Z,6.15
2022-09-12T12:59:15.542Z,6.03
2022-09-12T13:02:03.144Z,5.97
2022-09-12T13:04:51.335Z,7.97
2022-09-12T13:07:40.164Z,5.53
2022-09-12T13:10:30.936Z,6.18
2022-09-12T13:13:21.719Z,5.82
2022-09-12T13:16:10.457Z,6.47
2022-09-12T13:18:58.479Z,5.35
2022-09-12T13:21:56.701Z,6.10
2022-09-12T13:24:46.127Z,5.65
2022-09-12T13:27:35.078Z,6.70
2022-09-12T13:30:23.618Z,5.93
2022-09-12T13:33:13.021Z,5.50
2022-09-12T13:36:10.214Z,5.78
2022-09-12T13:39:03.703Z,4.68
2022-09-12T13:42:08.940Z,5.15
2022-09-12T13:44:59.316Z,7.97
2022-09-12T13:47:46.714Z,5.00
2022-09-12T13:50:38.299Z,4.80
2022-09-12T13:53:28.155Z,5.13
2022-09-12T13:56:17.779Z,4.97
2022-09-12T13:59:12.778Z,4.25
2022-09-12T14:02:01.861Z,4.80
2022-09-12T14:05:06.383Z,7.00
2022-09-12T14:07:56.366Z,4.32
2022-09-12T14:10:45.975Z,4.18
2022-09-12T14:13:33.644Z,3.88
2022-09-12T14:16:23.444Z,4.35
2022-09-12T14:19:16.350Z,4.70
2022-09-12T14:22:04.012Z,4.93
2022-09-12T14:24:52.435Z,4.47
2022-09-12T14:27:45.770Z,4.78
2022-09-12T14:30:34.926Z,6.68
2022-09-12T14:33:22.936Z,5.50
2022-09-12T14:36:13.769Z,5.57
2022-09-12T14:39:02.584Z,5.40
2022-09-12T14:41:51.701Z,5.30
2022-09-12T14:44:39.549Z,4.10
2022-09-12T14:47:28.578Z,5.47
2022-09-12T14:50:19.845Z,6.43
2022-09-12T14:53:21.734Z,6.82
2022-09-12T14:56:10.208Z,4.63
2022-09-12T14:59:17.995Z,3.38
2022-09-12T15:02:23.165Z,4.82
2022-09-12T15:05:18.973Z,5.97
2022-09-12T15:08:06.671Z,5.57
2022-09-12T15:10:56.193Z,5.25
2022-09-12T15:13:43.874Z,5.80
2022-09-12T15:16:31.579Z,3.90
2022-09-12T15:19:19.016Z,4.80
2022-09-12T15:22:06.410Z,5.88
2022-09-12T15:24:53.956Z,3.63
2022-09-12T15:27:43.483Z,5.43
2022-09-12T15:30:31.576Z,5.05
2022-09-12T15:33:20.342Z,4.47
2022-09-12T15:36:13.899Z,5.10
2022-09-12T15:41:48.878Z,4.68
2022-09-12T15:44:37.828Z,4.88
2022-09-12T15:47:25.040Z,4.43
2022-09-12T15:50:13.622Z,7.05
2022-09-12T15:53:00.939Z,4.25
2022-09-12T15:55:48.774Z,4.15
2022-09-12T15:58:42.743Z,5.10
2022-09-12T16:01:39.339Z,4.80
2022-09-12T16:04:26.861Z,5.32
2022-09-12T16:07:13.915Z,5.82
2022-09-12T16:10:01.003Z,4.90
2022-09-12T16:12:48.345Z,3.63
2022-09-12T16:15:36.487Z,6.22
2022-09-12T16:18:25.822Z,5.05
2022-09-12T16:21:15.866Z,6.32
2022-09-12T16:24:04.018Z,5.65
2022-09-12T16:26:51.807Z,5.63
2022-09-12T16:29:38.746Z,5.35
2022-09-12T16:32:26.345Z,6.05
2022-09-12T16:35:15.292Z,5.60
2022-09-12T16:38:02.749Z,5.82
2022-09-12T16:40:50.599Z,4.53
2022-09-12T16:43:39.386Z,5.80
2022-09-12T16:46:28.655Z,5.20
2022-09-12T16:49:16.640Z,4.75
2022-09-12T16:52:06.429Z,6.60
2022-09-12T16:54:54.318Z,6.47
2022-09-12T16:57:42.518Z,4.55
2022-09-12T17:00:30.482Z,5.40
2022-09-12T17:03:17.986Z,6.45
2022-09-12T17:06:08.382Z,5.35
2022-09-12T17:09:01.036Z,8.35
2022-09-12T17:11:49.722Z,6.15
2022-09-12T17:14:37.156Z,6.97
2022-09-12T17:17:25.195Z,5.20
2022-09-12T17:20:13.176Z,7.05
2022-09-12T17:23:00.464Z,7.32
2022-09-12T17:25:51.930Z,5.60
2022-09-12T17:28:39.680Z,5.93
2022-09-12T17:31:28.051Z,7.00
2022-09-12T17:34:16.429Z,6.93
2022-09-12T17:37:06.147Z,7.13
2022-09-12T17:39:54.027Z,6.88
2022-09-12T17:42:43.820Z,7.75
2022-09-12T17:45:32.292Z,9.77
2022-09-12T17:48:20.485Z,10.73
2022-09-12T17:51:08.378Z,7.45
2022-09-12T17:54:01.321Z,10.98
2022-09-12T17:56:51.578Z,9.02
2022-09-12T17:59:43.152Z,9.57
2022-09-12T18:02:33.061Z,7.57
2022-09-12T18:05:20.955Z,8.32
2022-09-12T18:08:08.815Z,7.35
2022-09-12T18:11:04.834Z,6.85
2022-09-12T18:13:52.452Z,11.07
2022-09-12T18:16:41.305Z,9.18
2022-09-12T18:19:29.499Z,7.47
2022-09-12T18:22:17.588Z,6.45
2022-09-12T18:25:05.168Z,8.85
2022-09-12T18:27:53.822Z,6.60
2022-09-12T18:30:43.156Z,8.95
2022-09-12T18:33:33.243Z,8.13
2022-09-12T18:36:22.474Z,7.10
2022-09-12T18:39:09.976Z,7.05
2022-09-12T18:41:57.935Z,7.43
2022-09-12T18:44:45.616Z,9.75
2022-09-12T18:47:33.006Z,7.72
2022-09-12T18:50:23.290Z,6.80
2022-09-12T18:53:11.343Z,7.93
2022-09-12T18:56:01.151Z,6.78
2022-09-12T18:58:51.097Z,7.53
2022-09-12T19:01:39.265Z,7.78
2022-09-12T19:04:26.762Z,6.97
2022-09-12T19:07:17.092Z,7.22
2022-09-12T19:10:05.399Z,6.55
2022-09-12T19:12:53.266Z,6.78
2022-09-12T19:15:41.704Z,7.53
2022-09-12T19:18:31.218Z,5.88
2022-09-12T19:21:22.594Z,6.88
2022-09-12T19:24:11.899Z,5.28
2022-09-12T19:27:00.791Z,6.38
2022-09-12T19:29:48.817Z,5.97
2022-09-12T19:32:37.599Z,5.85
2022-09-12T19:35:24.820Z,6.10
2022-09-12T19:38:13.511Z,6.70
2022-09-12T19:41:02.735Z,5.35
2022-09-12T19:43:50.736Z,7.72
2022-09-12T19:46:38.527Z,5.05
2022-09-12T19:49:25.547Z,6.45
2022-09-12T19:52:17.493Z,6.78
2022-09-12T19:55:04.811Z,5.07
2022-09-12T19:57:54.986Z,7.82
2022-09-12T20:00:42.105Z,8.75
2022-09-12T20:03:29.294Z,7.10
2022-09-12T20:06:17.881Z,6.05
2022-09-12T20:09:06.902Z,7.80
2022-09-12T20:11:54.060Z,7.05
2022-09-12T20:14:44.347Z,8.43
2022-09-12T20:17:35.262Z,8.43
2022-09-12T20:20:22.975Z,6.75
2022-09-12T20:23:10.922Z,5.63
2022-09-12T20:26:01.926Z,6.97
2022-09-12T20:28:49.726Z,6.95
2022-09-12T20:31:39.518Z,9.00
2022-09-12T20:34:27.189Z,9.02
2022-09-12T20:37:15.180Z,14.60
2022-09-12T20:40:08.435Z,9.10
2022-09-12T20:42:57.598Z,7.60
2022-09-12T20:45:48.524Z,7.50
2022-09-12T20:48:39.934Z,6.72
2022-09-12T20:51:29.956Z,7.68
2022-09-12T20:54:17.674Z,7.55
2022-09-12T20:57:05.481Z,6.63
2022-09-12T20:59:53.324Z,6.65
2022-09-12T21:02:41.176Z,6.53
2022-09-12T21:05:31.087Z,9.40
2022-09-12T21:08:19.413Z,12.45
2022-09-12T21:11:11.333Z,6.82
2022-09-12T21:13:59.376Z,8.15
2022-09-12T21:16:46.960Z,6.47
2022-09-12T21:19:34.906Z,7.85
2022-09-12T21:22:24.558Z,7.60
2022-09-12T21:25:12.175Z,6.72
2022-09-12T21:28:02.732Z,7.10
2022-09-12T21:30:50.978Z,6.68
2022-09-12T21:33:38.192Z,6.72
2022-09-12T21:36:25.778Z,7.82
2022-09-12T21:39:14.955Z,6.35
2022-09-12T21:42:02.515Z,6.20
2022-09-12T21:44:53.364Z,6.97
2022-09-12T21:47:41.063Z,6.50
2022-09-12T21:50:28.997Z,6.70
2022-09-12T21:53:16.927Z,6.20
2022-09-12T21:56:09.542Z,8.32
2022-09-12T21:58:56.979Z,7.47
2022-09-12T22:01:44.561Z,6.07
2022-09-12T22:04:33.195Z,6.88
2022-09-12T22:07:20.997Z,6.07
2022-09-12T22:10:08.944Z,6.05
2022-09-12T22:12:58.083Z,6.60
2022-09-12T22:15:46.048Z,9.43
2022-09-12T22:18:33.779Z,6.80
2022-09-12T22:21:22.503Z,6.85
2022-09-12T22:24:27.508Z,7.03
2022-09-12T22:27:14.815Z,7.40
2022-09-12T22:30:03.974Z,5.32
2022-09-12T22:32:51.906Z,6.10
2022-09-12T22:35:43.166Z,6.45
2022-09-12T22:38:31.374Z,5.70
2022-09-12T22:41:18.818Z,6.05
2022-09-12T22:44:10.194Z,6.22
2022-09-12T22:46:59.284Z,5.32
2022-09-12T22:49:48.151Z,6.93
2022-09-12T22:52:35.994Z,7.60
2022-09-12T22:55:23.382Z,7.57
2022-09-12T22:58:10.667Z,5.35
2022-09-12T23:00:58.361Z,6.88
2022-09-12T23:03:47.076Z,5.28
2022-09-12T23:06:34.655Z,5.55
2022-09-12T23:09:22.625Z,5.43
2022-09-12T23:12:10.371Z,5.70
2022-09-12T23:14:57.559Z,6.90
2022-09-12T23:17:44.926Z,5.30
2022-09-12T23:20:33.754Z,6.65
2022-09-12T23:23:21.311Z,5.38
2022-09-12T23:26:11.028Z,8.02
2022-09-12T23:28:59.185Z,6.68
2022-09-12T23:31:47.245Z,9.40
2022-09-12T23:34:34.764Z,6.13
2022-09-12T23:37:23.278Z,6.00
2022-09-12T23:40:11.273Z,6.10
2022-09-12T23:42:58.484Z,4.75
2022-09-12T23:45:46.207Z,7.13
2022-09-12T23:48:34.687Z,7.03
2022-09-12T23:51:23.592Z,6.28
2022-09-12T23:54:12.867Z,6.45
2022-09-12T23:57:00.552Z,5.32
2022-09-12T23:59:49.066Z,7.28
